Hlavní strana
METAR-TAF:

METAR-TAF

Letiště :

Port of Spain, Trinidad, Trinidad a Tobago

zeměpisná šířka: 10-37N, zeměpisná délka: 061-21W, výška: 12 m

Aktuální stav počasí

Zpráva byla vytvořena před 53 minutami, v 11:00 UTC
Východní vítr 6 kt
Teplota 25°C
Vlhkost vzduchu 83%
Tlak 1016 hPa
Viditelnost 10 km a více
Skoro jasno ve výšce 1600 ft

METAR: TTPP 121100Z 10006KT 9999 FEW016 25/22 Q1016 NOSIG

Čas: 07:53 (11:53 UTC)

Předpověď počasí

Zpráva byla vytvořena před 1 hodinou a 53 minutami, v 10:00 UTC
Předpověď platná od 12 v 12 UTC do 13 v 12 UTC
Východní vítr 14 kt
Viditelnost 10 km a více
Polojasno ve výšce 2000 ft
Změna
od 12 v 23 UTC do 13 v 01 UTC
Východní vítr 5 kt
Skoro jasno ve výšce 1600 ft

TAF: TTPP 121000Z 1212/1312 10014KT 9999 SCT020 BECMG 1223/1301 10005KT FEW016

Stav a předpovědi počasí z více než 4 000 letišť (zprávy METAR a TAF).

Červené a žluté tečky na mapě představují dostupné meteorologické stanice.

Když kurzor umístíte na tečku, zobrazí se název stanice.

Pak kliknutím zobrazíte stav a předpověď počasí.

Chcete-li změnit mapu, kliknutím na zelené tlačítko se znaménkem +mapu přiblížíte, kliknutím na zelené tlačítko se znaménkem – mapu oddálíte a kliknutím na zelené šipky přejdete na sousední mapy.


METAR-TAF: